Batteau, Canada
Current Conditions -  °F | °C
As of 4:00 AM on Friday 24 Oct 2014 (Local Time) from CWCA Reporting Station
Clear Clear  
Wind Chill: 36°   Ceiling: Unl
Heat Index: 41°   Visibility: 15mi
Dew Point: 30°   Wind: 7mph
Humidity: 65%   Direction: 310°NW
Pressure: 30.09"   Gusts: NA
Location:  53.4°N, 55.78°W
Report Text: CWCA 240700Z 31006KT 15SM SKC 05/M01 A3009 RMK SLP190
Loading
Personal Weather Stations






























Interactive Weather Map
Tropical Storm Tracking
New forecast layout! Learn more

10-Day Weather Forecast

Advertisements
Track Severe Weather on mobile